createdAt,value
2022-10-23T00:00:58.158Z,97944.53
2022-10-23T00:03:25.531Z,97939.16
2022-10-23T00:05:54.003Z,97936.72
2022-10-23T00:08:21.153Z,97940.00
2022-10-23T00:10:48.330Z,97946.72
2022-10-23T00:13:15.443Z,97937.22
2022-10-23T00:15:42.746Z,97939.69
2022-10-23T00:18:09.903Z,97931.56
2022-10-23T00:20:37.062Z,97922.09
2022-10-23T00:23:05.546Z,97931.81
2022-10-23T00:25:32.665Z,97934.78
2022-10-23T00:27:59.898Z,97932.91
2022-10-23T00:30:27.020Z,97928.59
2022-10-23T00:32:54.148Z,97926.97
2022-10-23T00:35:21.246Z,97923.47
2022-10-23T00:37:48.337Z,97926.19
2022-10-23T00:40:17.207Z,97928.34
2022-10-23T00:42:44.446Z,97933.47
2022-10-23T00:45:19.701Z,97934.81
2022-10-23T00:47:47.833Z,97929.16
2022-10-23T00:50:15.978Z,97933.75
2022-10-23T00:52:47.701Z,97937.56
2022-10-23T00:55:17.071Z,97942.41
2022-10-23T00:57:46.428Z,97937.56
2022-10-23T01:03:10.293Z,97927.84
2022-10-23T01:05:44.910Z,97929.97
2022-10-23T01:08:19.595Z,97946.97
2022-10-23T01:10:54.140Z,97931.84
2022-10-23T01:13:31.388Z,97941.31
2022-10-23T01:16:05.268Z,97941.31
2022-10-23T01:18:40.048Z,97938.34
2022-10-23T01:21:11.860Z,97929.72
2022-10-23T01:24:06.653Z,97928.88
2022-10-23T01:26:47.464Z,97931.06
2022-10-23T01:29:20.925Z,97932.41
2022-10-23T01:31:52.346Z,97931.59
2022-10-23T01:34:23.877Z,97919.47
2022-10-23T01:36:53.002Z,97913.28
2022-10-23T01:39:25.356Z,97914.59
2022-10-23T01:41:55.799Z,97920.56
2022-10-23T01:44:29.352Z,97919.22
2022-10-23T01:46:58.245Z,97908.97
2022-10-23T01:49:25.343Z,97901.97
2022-10-23T01:51:56.428Z,97915.19
2022-10-23T01:54:28.510Z,97915.72
2022-10-23T01:56:57.804Z,97911.94
2022-10-23T01:59:31.644Z,97906.25
2022-10-23T02:02:01.268Z,97902.22
2022-10-23T02:04:36.917Z,97897.09
2022-10-23T02:07:04.856Z,97894.34
2022-10-23T02:09:32.653Z,97892.50
2022-10-23T02:12:05.888Z,97889.78
2022-10-23T02:14:41.621Z,97893.00
2022-10-23T02:17:15.464Z,97893.28
2022-10-23T02:19:49.723Z,97878.47
2022-10-23T02:22:23.338Z,97877.69
2022-10-23T02:24:54.598Z,97870.66
2022-10-23T02:27:26.008Z,97870.66
2022-10-23T02:30:00.501Z,97883.59
2022-10-23T02:32:29.137Z,97884.44
2022-10-23T02:34:56.633Z,97879.06
2022-10-23T02:37:23.751Z,97891.44
2022-10-23T02:39:51.856Z,97897.09
2022-10-23T02:42:22.397Z,97887.41
2022-10-23T02:45:02.674Z,97891.50
2022-10-23T02:47:44.102Z,97884.16
2022-10-23T02:50:21.741Z,97879.84
2022-10-23T02:52:57.496Z,97866.91
2022-10-23T02:55:33.306Z,97866.34
2022-10-23T02:58:05.420Z,97866.06
2022-10-23T03:00:37.495Z,97869.31
2022-10-23T03:03:10.845Z,97860.13
2022-10-23T03:05:40.490Z,97859.34
2022-10-23T03:08:09.537Z,97856.09
2022-10-23T03:10:36.711Z,97849.06
2022-10-23T03:13:03.992Z,97843.16
2022-10-23T03:15:31.101Z,97848.28
2022-10-23T03:17:59.929Z,97845.84
2022-10-23T03:20:27.157Z,97843.69
2022-10-23T03:22:54.251Z,97855.59
2022-10-23T03:25:21.343Z,97855.59
2022-10-23T03:27:48.445Z,97861.78
2022-10-23T03:30:16.849Z,97860.97
2022-10-23T03:32:44.407Z,97866.91
2022-10-23T03:35:13.134Z,97863.94
2022-10-23T03:37:40.366Z,97866.97
2022-10-23T03:40:09.016Z,97858.81
2022-10-23T03:42:36.119Z,97863.66
2022-10-23T03:45:03.683Z,97880.66
2022-10-23T03:47:30.794Z,97880.94
2022-10-23T03:49:58.297Z,97878.75
2022-10-23T03:52:26.860Z,97872.56
2022-10-23T03:54:53.978Z,97864.72
2022-10-23T03:57:21.094Z,97855.84
2022-10-23T03:59:48.202Z,97857.19
2022-10-23T04:02:15.412Z,97845.84
2022-10-23T04:04:42.602Z,97846.38
2022-10-23T04:07:10.070Z,97854.78
2022-10-23T04:09:38.574Z,97850.72
2022-10-23T04:12:06.462Z,97850.47
2022-10-23T04:14:33.640Z,97851.25
2022-10-23T04:17:00.881Z,97856.66
2022-10-23T04:19:28.289Z,97859.66
2022-10-23T04:21:55.419Z,97851.56
2022-10-23T04:24:22.996Z,97840.50
2022-10-23T04:26:52.186Z,97842.38
2022-10-23T04:29:19.560Z,97842.16
2022-10-23T04:31:46.664Z,97839.41
2022-10-23T04:34:13.772Z,97838.59
2022-10-23T04:36:41.052Z,97845.34
2022-10-23T04:39:08.362Z,97847.50
2022-10-23T04:41:35.624Z,97848.81
2022-10-23T04:44:04.158Z,97838.56
2022-10-23T04:46:31.555Z,97842.59
2022-10-23T04:48:58.722Z,97840.44
2022-10-23T04:51:25.857Z,97841.81
2022-10-23T04:53:52.968Z,97842.09
2022-10-23T04:56:20.193Z,97839.13
2022-10-23T04:58:47.301Z,97835.91
2022-10-23T05:01:15.886Z,97835.66
2022-10-23T05:03:43.077Z,97834.56
2022-10-23T05:06:10.348Z,97838.34
2022-10-23T05:08:37.519Z,97847.50
2022-10-23T05:11:05.133Z,97852.63
2022-10-23T05:13:32.258Z,97839.94
2022-10-23T05:15:59.621Z,97842.91
2022-10-23T05:18:34.694Z,97836.44
2022-10-23T05:21:06.495Z,97844.00
2022-10-23T05:23:35.587Z,97832.09
2022-10-23T05:26:03.645Z,97834.28
2022-10-23T05:28:30.887Z,97837.25
2022-10-23T05:30:59.665Z,97833.44
2022-10-23T05:33:29.668Z,97832.38
2022-10-23T05:35:57.927Z,97836.69
2022-10-23T05:38:27.696Z,97833.69
2022-10-23T05:40:55.143Z,97842.88
2022-10-23T05:43:22.240Z,97841.25
2022-10-23T05:45:49.361Z,97841.53
2022-10-23T05:48:30.123Z,97840.44
2022-10-23T05:51:07.189Z,97835.84
2022-10-23T05:53:36.220Z,97842.63
2022-10-23T05:56:07.331Z,97842.94
2022-10-23T05:58:34.759Z,97837.31
2022-10-23T06:01:05.379Z,97835.44
2022-10-23T06:03:32.529Z,97846.81
2022-10-23T06:05:59.639Z,97848.44
2022-10-23T06:08:28.081Z,97856.28
2022-10-23T06:10:55.212Z,97862.75
2022-10-23T06:13:22.389Z,97862.50
2022-10-23T06:15:49.621Z,97870.06
2022-10-23T06:18:16.737Z,97873.00
2022-10-23T06:20:43.810Z,97861.13
2022-10-23T06:23:10.907Z,97859.22
2022-10-23T06:25:39.516Z,97857.38
2022-10-23T06:28:06.615Z,97856.00
2022-10-23T06:30:34.074Z,97858.69
2022-10-23T06:33:03.357Z,97854.34
2022-10-23T06:35:32.971Z,97853.53
2022-10-23T06:38:00.036Z,97854.06
2022-10-23T06:40:27.152Z,97850.56
2022-10-23T06:42:57.097Z,97860.53
2022-10-23T06:45:24.196Z,97861.59
2022-10-23T06:47:51.459Z,97857.84
2022-10-23T06:50:18.578Z,97849.44
2022-10-23T06:52:47.455Z,97846.75
2022-10-23T06:55:15.265Z,97847.28
2022-10-23T06:57:42.878Z,97841.09
2022-10-23T07:00:13.375Z,97840.84
2022-10-23T07:02:40.620Z,97838.13
2022-10-23T07:05:11.259Z,97855.16
2022-10-23T07:07:40.763Z,97855.97
2022-10-23T07:10:08.381Z,97862.97
2022-10-23T07:12:35.513Z,97867.00
2022-10-23T07:15:02.623Z,97872.41
2022-10-23T07:17:31.096Z,97867.00
2022-10-23T07:19:58.202Z,97865.38
2022-10-23T07:22:25.299Z,97858.94
2022-10-23T07:24:52.404Z,97855.38
2022-10-23T07:27:19.506Z,97850.56
2022-10-23T07:29:50.318Z,97858.13
2022-10-23T07:32:17.599Z,97857.00
2022-10-23T07:34:46.075Z,97859.72
2022-10-23T07:37:13.188Z,97852.44
2022-10-23T07:39:40.283Z,97855.16
2022-10-23T07:42:09.456Z,97860.81
2022-10-23T07:44:36.561Z,97867.00
2022-10-23T07:47:03.877Z,97861.06
2022-10-23T07:49:31.006Z,97862.09
2022-10-23T07:51:59.485Z,97861.88
2022-10-23T07:54:26.627Z,97861.66
2022-10-23T07:56:53.718Z,97866.06
2022-10-23T07:59:20.893Z,97856.09
2022-10-23T08:01:49.547Z,97855.03
2022-10-23T08:04:18.683Z,97849.63
2022-10-23T08:06:45.775Z,97849.09
2022-10-23T08:09:14.288Z,97841.56
2022-10-23T08:11:41.462Z,97838.09
2022-10-23T08:14:09.338Z,97825.94
2022-10-23T08:16:38.087Z,97835.38
2022-10-23T08:19:06.428Z,97839.69
2022-10-23T08:21:33.714Z,97833.75
2022-10-23T08:24:00.975Z,97774.22
2022-10-23T08:26:29.498Z,97838.31
2022-10-23T08:28:58.211Z,97827.78
2022-10-23T08:31:25.841Z,97831.06
2022-10-23T08:33:53.011Z,97827.84
2022-10-23T08:36:22.089Z,97837.53
2022-10-23T08:38:50.246Z,97829.44
2022-10-23T08:41:24.135Z,97832.94
2022-10-23T08:43:56.598Z,97831.31
2022-10-23T08:46:26.949Z,97832.69
2022-10-23T08:48:59.215Z,97838.03
2022-10-23T08:51:33.068Z,97840.22
2022-10-23T08:54:06.458Z,97836.72
2022-10-23T08:56:37.437Z,97838.34
2022-10-23T08:59:15.666Z,97826.22
2022-10-23T09:01:46.450Z,97832.66
2022-10-23T09:04:15.231Z,97832.94
2022-10-23T09:06:53.510Z,97816.53
2022-10-23T09:09:38.650Z,97826.75
2022-10-23T09:12:11.476Z,97820.25
2022-10-23T09:15:02.514Z,97818.66
2022-10-23T09:17:31.330Z,97822.44
2022-10-23T09:20:12.695Z,97821.06
2022-10-23T09:22:40.905Z,97817.84
2022-10-23T09:25:09.757Z,97816.50
2022-10-23T09:27:36.924Z,97816.50
2022-10-23T09:30:07.667Z,97815.72
2022-10-23T09:32:36.044Z,97806.03
2022-10-23T09:35:04.751Z,97812.75
2022-10-23T09:37:33.248Z,97811.94
2022-10-23T09:40:03.957Z,97812.75
2022-10-23T09:42:31.062Z,97809.78
2022-10-23T09:44:58.188Z,97813.00
2022-10-23T09:47:26.621Z,97794.97
2022-10-23T09:49:55.419Z,97799.53
2022-10-23T09:52:28.063Z,97797.66
2022-10-23T09:54:57.270Z,97800.31
2022-10-23T09:57:29.615Z,97805.44
2022-10-23T10:00:01.380Z,97806.22
2022-10-23T10:02:32.114Z,97794.94
2022-10-23T10:04:59.620Z,97795.47
2022-10-23T10:07:32.154Z,97790.91
2022-10-23T10:10:01.870Z,97787.66
2022-10-23T10:12:46.834Z,97792.22
2022-10-23T10:15:22.531Z,97785.28
2022-10-23T10:18:01.861Z,97774.78
2022-10-23T10:20:43.259Z,97779.88
2022-10-23T10:23:22.421Z,97771.44
2022-10-23T10:25:59.301Z,97770.81
2022-10-23T10:28:50.129Z,97771.25
2022-10-23T10:31:23.407Z,97759.63
2022-10-23T10:34:03.585Z,97760.75
2022-10-23T10:36:42.620Z,97746.75
2022-10-23T10:39:20.652Z,97756.41
2022-10-23T10:42:04.412Z,97748.00
2022-10-23T10:44:46.099Z,97745.31
2022-10-23T10:47:20.954Z,97734.63
2022-10-23T10:50:00.366Z,97741.41
2022-10-23T10:52:38.470Z,97738.47
2022-10-23T10:55:18.584Z,97732.09
2022-10-23T10:57:50.188Z,97729.09
2022-10-23T11:00:19.261Z,97725.13
2022-10-23T11:02:48.532Z,97722.28
2022-10-23T11:05:30.736Z,97715.75
2022-10-23T11:08:02.097Z,97696.19
2022-10-23T11:10:30.799Z,97703.81
2022-10-23T11:12:58.067Z,97696.03
2022-10-23T11:15:30.507Z,97692.81
2022-10-23T11:18:01.577Z,97702.81
2022-10-23T11:20:58.959Z,97707.66
2022-10-23T11:23:48.025Z,97694.97
2022-10-23T11:26:27.973Z,97695.50
2022-10-23T11:29:15.142Z,97690.09
2022-10-23T11:31:53.209Z,97693.03
2022-10-23T11:34:43.286Z,97684.94
2022-10-23T11:37:16.771Z,97676.00
2022-10-23T11:40:00.483Z,97676.56
2022-10-23T11:42:31.765Z,97676.34
2022-10-23T11:44:58.866Z,97672.84
2022-10-23T11:47:38.002Z,97666.84
2022-10-23T11:50:24.475Z,97663.63
2022-10-23T11:53:13.292Z,97667.38
2022-10-23T11:56:00.757Z,97653.88
2022-10-23T11:58:29.224Z,97641.44
2022-10-23T12:01:01.385Z,97639.28
2022-10-23T12:03:37.150Z,97640.44
2022-10-23T12:06:05.757Z,97637.75
2022-10-23T12:08:38.190Z,97630.69
2022-10-23T12:11:05.529Z,97603.13
2022-10-23T12:13:45.362Z,97599.97
2022-10-23T12:16:13.377Z,97611.78
2022-10-23T12:18:52.004Z,97603.72
2022-10-23T12:21:21.368Z,97593.16
2022-10-23T12:24:08.606Z,97581.53
2022-10-23T12:26:48.443Z,97574.50
2022-10-23T12:29:28.222Z,97567.06
2022-10-23T12:32:02.669Z,97571.84
2022-10-23T12:34:45.353Z,97569.75
2022-10-23T12:37:51.722Z,97585.16
2022-10-23T12:40:20.509Z,97583.84
2022-10-23T12:42:53.753Z,97581.09
2022-10-23T12:45:24.797Z,97568.22
2022-10-23T12:47:52.463Z,97567.47
2022-10-23T12:50:21.648Z,97563.69
2022-10-23T12:52:52.922Z,97563.97
2022-10-23T12:55:22.028Z,97554.84
2022-10-23T12:57:49.415Z,97551.69
2022-10-23T13:00:19.703Z,97549.28
2022-10-23T13:02:47.215Z,97551.72
2022-10-23T13:05:19.850Z,97541.78
2022-10-23T13:07:48.841Z,97534.75
2022-10-23T13:10:17.968Z,97527.44
2022-10-23T13:12:53.397Z,97519.66
2022-10-23T13:15:21.685Z,97521.72
2022-10-23T13:18:02.086Z,97512.53
2022-10-23T13:20:31.169Z,97513.00
2022-10-23T13:23:01.440Z,97517.22
2022-10-23T13:25:31.052Z,97520.22
2022-10-23T13:28:24.269Z,97516.72
2022-10-23T13:31:04.575Z,97521.38
2022-10-23T13:33:34.890Z,97525.69
2022-10-23T13:36:04.965Z,97518.97
2022-10-23T13:38:34.335Z,97515.94
2022-10-23T13:41:04.418Z,97501.75
2022-10-23T13:43:33.825Z,97510.28
2022-10-23T13:46:01.599Z,97509.00
2022-10-23T13:48:29.226Z,97512.59
2022-10-23T13:51:06.052Z,97506.09
2022-10-23T13:53:33.160Z,97501.31
2022-10-23T13:56:00.243Z,97499.13
2022-10-23T13:58:27.371Z,97499.13
2022-10-23T14:00:55.852Z,97498.00
2022-10-23T14:03:23.025Z,97498.19
2022-10-23T14:05:50.237Z,97507.19
2022-10-23T14:08:17.403Z,97513.63
2022-10-23T14:10:45.804Z,97514.91
2022-10-23T14:13:13.186Z,97505.78
2022-10-23T14:15:40.457Z,97508.69
2022-10-23T14:18:08.971Z,97499.03
2022-10-23T14:20:38.414Z,97499.03
2022-10-23T14:23:05.509Z,97500.38
2022-10-23T14:25:32.595Z,97502.19
2022-10-23T14:27:59.685Z,97508.09
2022-10-23T14:30:26.777Z,97491.34
2022-10-23T14:32:53.884Z,97500.59
2022-10-23T14:35:22.497Z,97492.72
2022-10-23T14:37:49.578Z,97498.69
2022-10-23T14:40:16.810Z,97495.81
2022-10-23T14:42:44.144Z,97492.38
2022-10-23T14:45:11.480Z,97496.25
2022-10-23T14:47:38.583Z,97488.16
2022-10-23T14:50:07.076Z,97489.75
2022-10-23T14:52:35.561Z,97490.19
2022-10-23T14:55:02.780Z,97486.50
2022-10-23T14:57:29.987Z,97485.94
2022-10-23T14:59:57.101Z,97485.06
2022-10-23T15:02:24.187Z,97475.31
2022-10-23T15:04:51.315Z,97473.91
2022-10-23T15:07:18.453Z,97478.66
2022-10-23T15:09:46.895Z,97472.47
2022-10-23T15:12:14.007Z,97472.75
2022-10-23T15:14:41.089Z,97476.25
2022-10-23T15:17:10.692Z,97476.00
2022-10-23T15:19:40.174Z,97474.88
2022-10-23T15:22:07.350Z,97477.13
2022-10-23T15:24:34.505Z,97462.00
2022-10-23T15:27:03.316Z,97459.13
2022-10-23T15:29:30.450Z,97457.94
2022-10-23T15:31:58.897Z,97440.50
2022-10-23T15:34:28.555Z,97437.31
2022-10-23T15:36:57.761Z,97444.59
2022-10-23T15:39:27.237Z,97447.53
2022-10-23T15:41:56.614Z,97445.13
2022-10-23T15:44:27.073Z,97444.72
2022-10-23T15:46:54.783Z,97445.28
2022-10-23T15:49:21.903Z,97440.22
2022-10-23T15:51:49.007Z,97441.97
2022-10-23T15:54:17.650Z,97455.09
2022-10-23T15:56:46.103Z,97448.88
2022-10-23T15:59:13.553Z,97444.78
2022-10-23T16:01:42.406Z,97449.69
2022-10-23T16:04:09.747Z,97452.75
2022-10-23T16:06:36.947Z,97447.38
2022-10-23T16:09:04.289Z,97447.25
2022-10-23T16:11:34.408Z,97438.66
2022-10-23T16:14:01.608Z,97433.75
2022-10-23T16:16:29.255Z,97439.59
2022-10-23T16:19:00.283Z,97438.84
2022-10-23T16:21:29.488Z,97437.53
2022-10-23T16:23:58.073Z,97429.72
2022-10-23T16:26:26.444Z,97418.50
2022-10-23T16:28:54.292Z,97431.06
2022-10-23T16:31:22.529Z,97427.13
2022-10-23T16:33:50.693Z,97437.56
2022-10-23T16:36:19.933Z,97442.94
2022-10-23T16:38:47.019Z,97437.81
2022-10-23T16:41:14.174Z,97437.41
2022-10-23T16:43:41.308Z,97432.69
2022-10-23T16:46:12.040Z,97438.31
2022-10-23T16:48:39.554Z,97443.63
2022-10-23T16:51:08.350Z,97445.78
2022-10-23T16:53:37.410Z,97447.75
2022-10-23T16:56:06.210Z,97452.59
2022-10-23T16:58:34.051Z,97451.00
2022-10-23T17:01:03.278Z,97446.09
2022-10-23T17:03:30.506Z,97448.56
2022-10-23T17:06:01.597Z,97451.81
2022-10-23T17:08:29.639Z,97457.31
2022-10-23T17:11:05.704Z,97458.16
2022-10-23T17:13:33.278Z,97453.88
2022-10-23T17:16:08.388Z,97454.94
2022-10-23T17:18:38.698Z,97446.78
2022-10-23T17:21:10.226Z,97453.78
2022-10-23T17:23:37.414Z,97451.31
2022-10-23T17:26:10.054Z,97456.63
2022-10-23T17:28:38.115Z,97463.38
2022-10-23T17:31:10.556Z,97462.81
2022-10-23T17:33:37.714Z,97450.63
2022-10-23T17:36:05.630Z,97444.44
2022-10-23T17:38:35.418Z,97460.91
2022-10-23T17:41:02.700Z,97449.31
2022-10-23T17:43:31.222Z,97438.53
2022-10-23T17:45:58.468Z,97437.41
2022-10-23T17:48:25.688Z,97443.91
2022-10-23T17:51:01.313Z,97440.94
2022-10-23T17:53:29.056Z,97439.03
2022-10-23T17:55:56.201Z,97432.63
2022-10-23T17:58:23.546Z,97431.81
2022-10-23T18:00:52.056Z,97436.97
2022-10-23T18:03:20.001Z,97437.25
2022-10-23T18:05:47.690Z,97434.81
2022-10-23T18:08:14.784Z,97447.13
2022-10-23T18:10:42.715Z,97400.75
2022-10-23T18:13:10.072Z,97441.66
2022-10-23T18:15:37.245Z,97443.53
2022-10-23T18:18:05.971Z,97447.34
2022-10-23T18:20:33.680Z,97456.03
2022-10-23T18:23:00.751Z,97450.19
2022-10-23T18:25:27.837Z,97455.78
2022-10-23T18:27:58.029Z,97458.50
2022-10-23T18:30:27.490Z,97455.03
2022-10-23T18:32:54.604Z,97456.94
2022-10-23T18:35:23.050Z,97449.44
2022-10-23T18:37:50.149Z,97439.16
2022-10-23T18:40:17.422Z,97460.22
2022-10-23T18:42:44.848Z,97465.41
2022-10-23T18:45:12.524Z,97478.94
2022-10-23T18:47:39.612Z,97480.34
2022-10-23T18:50:07.843Z,97474.94
2022-10-23T18:52:36.330Z,97468.44
2022-10-23T18:55:04.440Z,97463.13
2022-10-23T18:57:32.022Z,97470.63
2022-10-23T18:59:59.564Z,97470.28
2022-10-23T19:02:27.092Z,97480.75
2022-10-23T19:04:54.312Z,97451.09
2022-10-23T19:07:21.500Z,97427.41
2022-10-23T19:09:50.068Z,97430.59
2022-10-23T19:12:17.470Z,97427.41
2022-10-23T19:14:45.556Z,97422.56
2022-10-23T19:17:16.326Z,97432.84
2022-10-23T19:19:46.618Z,97418.78
2022-10-23T19:22:15.415Z,97408.06
2022-10-23T19:24:45.250Z,97415.34
2022-10-23T19:27:14.306Z,97419.13
2022-10-23T19:29:44.820Z,97416.16
2022-10-23T19:32:12.275Z,97404.09
2022-10-23T19:34:39.480Z,97400.03
2022-10-23T19:37:06.651Z,97392.47
2022-10-23T19:39:33.791Z,97390.84
2022-10-23T19:42:01.010Z,97384.66
2022-10-23T19:44:29.649Z,97402.44
2022-10-23T19:46:56.835Z,97403.53
2022-10-23T19:49:24.018Z,97412.38
2022-10-23T19:51:51.717Z,97413.97
2022-10-23T19:54:19.222Z,97404.28
2022-10-23T19:56:46.391Z,97424.25
2022-10-23T19:59:13.470Z,97427.16
2022-10-23T20:01:45.065Z,97414.56
2022-10-23T20:04:17.054Z,97438.00
2022-10-23T20:06:44.320Z,97429.41
2022-10-23T20:09:11.411Z,97436.19
2022-10-23T20:11:39.760Z,97439.97
2022-10-23T20:14:07.482Z,97442.38
2022-10-23T20:16:36.877Z,97423.88
2022-10-23T20:19:08.437Z,97442.47
2022-10-23T20:21:36.233Z,97443.91
2022-10-23T20:24:03.405Z,97460.31
2022-10-23T20:26:30.672Z,97473.50
2022-10-23T20:28:57.786Z,97458.69
2022-10-23T20:31:26.498Z,97461.88
2022-10-23T20:33:54.524Z,97463.22
2022-10-23T20:36:26.173Z,97469.44
2022-10-23T20:38:53.819Z,97473.22
2022-10-23T20:41:22.230Z,97489.88
2022-10-23T20:43:49.319Z,97487.44
2022-10-23T20:46:16.679Z,97481.78
2022-10-23T20:48:44.863Z,97472.94
2022-10-23T20:51:14.284Z,97482.63
2022-10-23T20:53:43.806Z,97488.03
2022-10-23T20:56:14.964Z,97495.59
2022-10-23T20:58:42.407Z,97504.22
2022-10-23T21:01:11.073Z,97509.69
2022-10-23T21:03:38.704Z,97518.31
2022-10-23T21:06:07.359Z,97521.63
2022-10-23T21:08:34.807Z,97521.91
2022-10-23T21:11:03.800Z,97537.03
2022-10-23T21:13:32.664Z,97532.09
2022-10-23T21:16:00.139Z,97532.63
2022-10-23T21:18:44.921Z,97532.91
2022-10-23T21:21:14.775Z,97548.78
2022-10-23T21:23:41.983Z,97532.41
2022-10-23T21:26:10.432Z,97531.53
2022-10-23T21:28:37.598Z,97533.09
2022-10-23T21:31:05.994Z,97525.88
2022-10-23T21:33:33.600Z,97538.25
2022-10-23T21:36:12.847Z,97540.44
2022-10-23T21:38:40.657Z,97550.94
2022-10-23T21:41:08.496Z,97555.81
2022-10-23T21:43:36.994Z,97565.53
2022-10-23T21:46:04.793Z,97579.00
2022-10-23T21:48:32.193Z,97573.16
2022-10-23T21:50:59.682Z,97605.75
2022-10-23T21:53:27.162Z,97586.91
2022-10-23T21:55:56.053Z,97583.06
2022-10-23T21:58:23.147Z,97573.16
2022-10-23T22:00:51.586Z,97565.88
2022-10-23T22:03:18.692Z,97576.13
2022-10-23T22:05:45.763Z,97569.66
2022-10-23T22:08:12.996Z,97577.19
2022-10-23T22:10:40.070Z,97559.13
2022-10-23T22:13:07.209Z,97556.38
2022-10-23T22:15:34.385Z,97566.59
2022-10-23T22:18:02.913Z,97574.13
2022-10-23T22:20:29.987Z,97580.56
2022-10-23T22:22:57.078Z,97575.72
2022-10-23T22:25:24.158Z,97580.59
2022-10-23T22:27:51.249Z,97573.63
2022-10-23T22:30:18.405Z,97566.88
2022-10-23T22:32:45.794Z,97587.63
2022-10-23T22:35:14.536Z,97584.63
2022-10-23T22:37:41.632Z,97590.59
2022-10-23T22:40:09.779Z,97599.22
2022-10-23T22:42:36.849Z,97607.88
2022-10-23T22:45:04.609Z,97615.44
2022-10-23T22:47:31.671Z,97615.19
2022-10-23T22:49:58.746Z,97613.88
2022-10-23T22:52:27.223Z,97622.53
2022-10-23T22:54:54.304Z,97634.06
2022-10-23T22:57:21.460Z,97632.25
2022-10-23T22:59:48.583Z,97637.34
2022-10-23T23:02:15.673Z,97641.94
2022-10-23T23:04:42.778Z,97648.41
2022-10-23T23:07:11.666Z,97650.84
2022-10-23T23:09:42.162Z,97655.91
2022-10-23T23:12:11.564Z,97650.75
2022-10-23T23:14:39.422Z,97654.00
2022-10-23T23:17:07.531Z,97665.91
2022-10-23T23:19:34.905Z,97662.41
2022-10-23T23:22:02.344Z,97656.94
2022-10-23T23:24:29.475Z,97654.00
2022-10-23T23:26:57.986Z,97669.13
2022-10-23T23:29:25.108Z,97681.56
2022-10-23T23:31:52.228Z,97657.06
2022-10-23T23:34:19.302Z,97669.66
2022-10-23T23:36:46.474Z,97675.38
2022-10-23T23:39:13.566Z,97676.72
2022-10-23T23:41:40.688Z,97688.88
2022-10-23T23:44:09.903Z,97685.13
2022-10-23T23:46:37.335Z,97689.94
2022-10-23T23:49:04.437Z,97701.06
2022-10-23T23:51:31.927Z,97703.69
2022-10-23T23:53:59.161Z,97702.63
2022-10-23T23:56:26.231Z,97718.00
2022-10-23T23:58:53.402Z,97723.09
